Time;durP1;ratioP1;P1;durP2;ratioP2;P2;SDS_P1;SDS_P2;PMS_P1;PMS_P2;Temp;Humidity;BMP_temperature;BMP_pressure;BME280_temperature;BME280_humidity;BME280_pressure;Samples;Min_cycle;Max_cycle;Signal;HPM_P1;HPM_P2
2022/11/23 00:01:34;;;;;;;167.63;155.07;;;2.70;29.60;;;;;;5114275;28;20172;-68
2022/11/23 00:04:03;;;;;;;139.50;128.27;;;2.70;30.00;;;;;;5114358;28;20167;-68
2022/11/23 00:06:29;;;;;;;188.75;175.77;;;2.70;30.00;;;;;;5114281;28;20207;-69
2022/11/23 00:08:55;;;;;;;156.07;143.98;;;2.70;29.90;;;;;;5114355;28;20632;-68
2022/11/23 00:11:22;;;;;;;380.50;359.63;;;2.70;29.80;;;;;;5114342;28;20173;-70
2022/11/23 00:13:48;;;;;;;304.80;287.33;;;2.70;29.50;;;;;;5114016;28;20187;-70
2022/11/23 00:16:17;;;;;;;313.00;293.80;;;2.70;29.50;;;;;;5114069;28;20227;-69
2022/11/23 00:18:42;;;;;;;147.52;135.60;;;2.70;29.50;;;;;;5114093;28;20407;-69
2022/11/23 00:21:10;;;;;;;208.00;193.30;;;2.70;30.10;;;;;;5114093;28;20181;-69
2022/11/23 00:23:36;;;;;;;257.10;239.73;;;2.70;30.00;;;;;;5113920;28;20568;-69
2022/11/23 00:26:03;;;;;;;367.27;346.30;;;2.70;29.70;;;;;;5113903;28;20290;-69
2022/11/23 00:28:28;;;;;;;414.70;392.92;;;2.70;29.30;;;;;;5113716;28;20408;-71
2022/11/23 00:30:54;;;;;;;292.10;274.93;;;2.60;29.50;;;;;;5095517;28;20180;-69
2022/11/23 00:33:19;;;;;;;218.37;204.10;;;2.70;29.30;;;;;;5113679;28;20294;-68
2022/11/23 00:35:45;;;;;;;410.47;389.23;;;2.60;29.30;;;;;;5113686;28;20202;-68
2022/11/23 00:38:12;;;;;;;220.65;206.23;;;2.60;29.20;;;;;;5113700;28;20212;-69
2022/11/23 00:40:37;;;;;;;191.33;177.33;;;2.50;29.00;;;;;;5095455;28;20259;-69
2022/11/23 00:43:03;;;;;;;447.40;424.47;;;2.50;29.30;;;;;;5113315;28;20209;-70
2022/11/23 00:45:29;;;;;;;265.40;248.20;;;2.50;29.10;;;;;;5113415;28;20242;-69
2022/11/23 00:47:54;;;;;;;241.37;226.03;;;2.40;29.00;;;;;;5113503;28;20671;-69
2022/11/23 00:50:20;;;;;;;171.90;159.17;;;2.40;29.40;;;;;;5113598;28;20693;-71
2022/11/23 00:52:45;;;;;;;229.47;214.30;;;2.40;29.40;;;;;;5113438;28;20178;-71
2022/11/23 00:55:11;;;;;;;231.40;216.83;;;2.30;29.30;;;;;;5113294;28;20226;-70
2022/11/23 00:57:36;;;;;;;299.93;283.60;;;2.30;29.80;;;;;;5113245;28;20212;-70
2022/11/23 01:00:04;;;;;;;184.80;171.70;;;2.20;29.90;;;;;;5113202;28;20173;-71
2022/11/23 01:02:29;;;;;;;360.38;341.23;;;2.20;30.00;;;;;;5112915;28;20234;-70
2022/11/23 01:04:55;;;;;;;318.23;300.70;;;2.20;29.50;;;;;;5113235;28;20256;-69
2022/11/23 01:07:21;;;;;;;213.07;199.33;;;2.10;30.10;;;;;;5112964;28;20211;-71
2022/11/23 01:09:46;;;;;;;177.07;164.43;;;2.10;30.50;;;;;;5113123;28;20406;-70
2022/11/23 01:12:12;;;;;;;285.57;268.73;;;2.10;30.00;;;;;;5112830;28;20169;-70
2022/11/23 01:14:38;;;;;;;233.10;218.40;;;2.10;30.60;;;;;;5112983;28;20647;-70
2022/11/23 01:17:03;;;;;;;133.20;121.47;;;2.10;30.60;;;;;;5112968;28;20219;-70
2022/11/23 01:19:29;;;;;;;235.67;220.40;;;2.10;30.80;;;;;;5112753;28;20176;-70
2022/11/23 01:21:54;;;;;;;256.90;241.40;;;2.10;30.60;;;;;;5112200;28;20723;-70
2022/11/23 01:24:21;;;;;;;225.97;211.47;;;2.10;30.60;;;;;;5112881;28;20920;-71
2022/11/23 01:26:51;;;;;;;312.58;292.38;;;2.10;30.60;;;;;;5112598;28;20230;-71
2022/11/23 01:29:17;;;;;;;227.32;210.88;;;2.10;30.60;;;;;;5112735;28;20649;-70
2022/11/23 01:31:43;;;;;;;200.87;187.10;;;2.10;30.60;;;;;;5112707;28;20230;-70
2022/11/23 01:34:10;;;;;;;217.67;202.80;;;2.10;30.60;;;;;;5112782;28;20173;-70
2022/11/23 01:36:35;;;;;;;234.70;219.32;;;2.00;30.60;;;;;;5112530;28;20441;-70
2022/11/23 01:39:03;;;;;;;226.23;211.37;;;2.10;30.60;;;;;;5112703;28;20173;-70
2022/11/23 01:41:31;;;;;;;130.40;119.13;;;2.10;30.60;;;;;;5112377;28;20179;-70
2022/11/23 01:43:56;;;;;;;185.70;172.35;;;2.10;30.00;;;;;;5112388;28;20172;-69
2022/11/23 01:46:22;;;;;;;199.03;185.37;;;2.00;30.20;;;;;;5112374;28;20711;-70
2022/11/23 01:49:06;;;;;;;181.43;168.03;;;2.00;30.50;;;;;;5112480;28;20198;-71
2022/11/23 01:51:39;;;;;;;256.80;238.73;;;2.00;30.50;;;;;;5112446;28;20223;-70
2022/11/23 01:54:13;;;;;;;187.25;173.80;;;1.90;30.40;;;;;;5112401;28;20165;-69
2022/11/23 01:56:42;;;;;;;159.85;147.40;;;1.90;31.00;;;;;;5118769;22;20234;-70
2022/11/23 01:59:11;;;;;;;139.30;127.70;;;1.90;31.50;;;;;;5071705;28;20230;-70
2022/11/23 02:01:37;;;;;;;164.70;151.93;;;2.00;31.90;;;;;;5071462;28;20535;-70
2022/11/23 02:04:05;;;;;;;211.73;196.13;;;2.00;32.30;;;;;;5071662;28;20192;-70
2022/11/23 02:06:32;;;;;;;180.80;167.10;;;2.10;31.50;;;;;;5071523;28;20245;-70
2022/11/23 02:08:58;;;;;;;173.73;160.25;;;2.20;30.90;;;;;;5070285;28;20180;-70
2022/11/23 02:11:24;;;;;;;251.30;234.40;;;2.20;30.70;;;;;;5071583;28;20213;-70
2022/11/23 02:13:50;;;;;;;221.50;205.50;;;2.30;30.30;;;;;;5071605;28;20624;-70
2022/11/23 02:16:17;;;;;;;203.00;188.27;;;2.30;31.30;;;;;;5071488;28;20229;-70
2022/11/23 02:18:45;;;;;;;160.35;148.32;;;2.30;30.10;;;;;;5071612;28;20657;-70
2022/11/23 02:21:11;;;;;;;352.48;331.40;;;2.40;30.00;;;;;;5071592;28;20179;-70
2022/11/23 02:24:02;;;;;;;281.10;261.77;;;2.40;29.70;;;;;;5070093;28;20249;-70
2022/11/23 02:26:32;;;;;;;296.42;279.05;;;2.30;29.90;;;;;;5070136;28;20465;-71
2022/11/23 02:29:16;;;;;;;159.45;147.30;;;2.40;30.20;;;;;;5071410;28;20166;-71
2022/11/23 02:31:41;;;;;;;314.10;293.75;;;2.40;30.20;;;;;;5072333;28;20172;-71
2022/11/23 02:34:07;;;;;;;254.97;239.17;;;2.30;30.00;;;;;;5074245;28;20187;-71
2022/11/23 02:36:35;;;;;;;241.40;226.00;;;2.30;29.90;;;;;;5075454;28;20202;-70
2022/11/23 02:39:31;;;;;;;236.25;221.10;;;2.30;30.10;;;;;;5075348;28;20550;-70
2022/11/23 02:41:57;;;;;;;158.55;145.50;;;2.30;30.00;;;;;;5075072;28;20243;-70
2022/11/23 02:44:42;;;;;;;122.00;111.05;;;2.30;29.60;;;;;;5073966;28;20643;-70
2022/11/23 02:47:10;;;;;;;213.63;199.07;;;2.20;29.90;;;;;;5073950;28;20701;-71
2022/11/23 02:49:36;;;;;;;224.00;207.10;;;2.20;29.70;;;;;;5075337;28;20248;-71
2022/11/23 02:52:02;;;;;;;229.32;213.57;;;2.20;30.00;;;;;;5074901;28;20175;-70
2022/11/23 02:54:28;;;;;;;148.40;136.57;;;2.20;29.90;;;;;;5075006;28;20202;-70
2022/11/23 02:56:54;;;;;;;186.83;173.37;;;2.20;30.20;;;;;;5074787;28;20242;-70
2022/11/23 02:59:19;;;;;;;178.77;165.47;;;2.20;30.00;;;;;;5075035;28;21230;-70
2022/11/23 03:01:46;;;;;;;185.60;171.90;;;2.10;30.00;;;;;;5073420;28;20185;-70
2022/11/23 03:04:11;;;;;;;133.05;121.22;;;2.10;30.00;;;;;;5073596;28;20544;-71
2022/11/23 03:06:37;;;;;;;261.93;244.37;;;2.10;30.60;;;;;;5074704;28;20201;-70
2022/11/23 03:09:03;;;;;;;234.13;218.80;;;2.00;30.50;;;;;;5074738;28;20172;-70
2022/11/23 03:11:29;;;;;;;333.00;313.60;;;2.00;30.50;;;;;;5074494;28;20261;-70
2022/11/23 03:13:54;;;;;;;260.17;244.67;;;2.00;30.50;;;;;;5073326;28;20905;-70
2022/11/23 03:16:20;;;;;;;301.13;283.67;;;2.00;30.50;;;;;;5074515;28;20194;-71
2022/11/23 03:18:45;;;;;;;297.00;280.43;;;2.00;30.50;;;;;;5074625;28;20185;-71
2022/11/23 03:21:11;;;;;;;151.50;138.97;;;2.00;30.90;;;;;;5074622;28;20413;-71
2022/11/23 03:23:37;;;;;;;297.00;276.83;;;2.00;30.50;;;;;;5074183;28;20198;-70
2022/11/23 03:26:04;;;;;;;246.07;230.93;;;2.00;30.50;;;;;;5074601;28;20202;-71
2022/11/23 03:28:29;;;;;;;219.05;204.65;;;1.90;31.00;;;;;;5074718;28;20171;-71
2022/11/23 03:30:56;;;;;;;296.13;279.30;;;2.00;30.50;;;;;;5073106;28;20180;-71
2022/11/23 03:33:21;;;;;;;288.13;270.58;;;1.90;30.40;;;;;;5072812;28;20694;-70
2022/11/23 03:35:47;;;;;;;247.53;231.57;;;1.90;31.20;;;;;;5074256;28;20267;-71
2022/11/23 03:38:13;;;;;;;184.03;171.03;;;1.90;30.50;;;;;;5074270;28;20546;-71
2022/11/23 03:40:38;;;;;;;293.93;276.40;;;1.90;30.60;;;;;;5074183;28;20178;-70
2022/11/23 03:43:04;;;;;;;211.40;196.70;;;1.90;30.40;;;;;;5073311;28;20186;-71
2022/11/23 03:45:29;;;;;;;187.13;174.00;;;1.90;30.80;;;;;;5072873;28;20248;-71
2022/11/23 03:47:55;;;;;;;322.10;299.93;;;1.90;30.40;;;;;;5072568;28;20229;-70
2022/11/23 03:50:20;;;;;;;233.47;218.80;;;1.90;30.40;;;;;;5074094;28;20231;-70
2022/11/23 03:52:48;;;;;;;182.30;169.13;;;1.90;30.50;;;;;;5073819;28;20179;-71
2022/11/23 03:55:13;;;;;;;200.82;186.85;;;1.80;30.60;;;;;;5073818;28;20211;-71
2022/11/23 03:57:39;;;;;;;221.97;207.80;;;1.90;30.40;;;;;;5073766;28;20700;-71
2022/11/23 04:00:05;;;;;;;270.10;251.20;;;1.90;30.60;;;;;;5073855;28;20233;-71
2022/11/23 04:02:31;;;;;;;291.63;274.55;;;1.80;30.60;;;;;;5073704;28;20170;-71
2022/11/23 04:04:56;;;;;;;311.57;293.83;;;1.80;31.30;;;;;;5073943;28;20189;-71
2022/11/23 04:07:22;;;;;;;205.27;191.83;;;1.80;31.50;;;;;;5073652;28;20703;-71
2022/11/23 04:09:47;;;;;;;261.57;245.50;;;1.90;31.70;;;;;;5073724;28;20308;-71
2022/11/23 04:12:13;;;;;;;177.10;163.93;;;1.90;31.40;;;;;;5073538;28;20578;-71
2022/11/23 04:14:38;;;;;;;263.50;247.30;;;1.90;31.20;;;;;;5073861;28;20232;-71
2022/11/23 04:17:04;;;;;;;234.47;219.13;;;2.00;32.00;;;;;;5073490;28;20202;-71
2022/11/23 04:19:29;;;;;;;190.20;176.43;;;2.00;31.50;;;;;;5073643;28;20533;-71
2022/11/23 04:21:55;;;;;;;192.93;178.83;;;2.10;31.40;;;;;;5073225;28;20264;-71
2022/11/23 04:24:21;;;;;;;229.30;213.97;;;2.10;30.90;;;;;;5072108;28;20186;-71
2022/11/23 04:26:46;;;;;;;187.77;173.37;;;2.20;31.20;;;;;;5073244;28;20218;-71
2022/11/23 04:29:12;;;;;;;159.10;146.53;;;2.30;30.60;;;;;;5073345;28;20189;-71
2022/11/23 04:31:37;;;;;;;171.70;158.97;;;2.40;29.90;;;;;;5073091;28;20694;-70
2022/11/23 04:34:03;;;;;;;248.57;231.70;;;2.40;29.80;;;;;;5073291;28;20209;-71
2022/11/23 04:36:29;;;;;;;256.67;240.50;;;2.40;29.20;;;;;;5071776;28;20748;-71
2022/11/23 04:38:54;;;;;;;245.82;230.23;;;2.40;29.20;;;;;;5073036;28;20190;-70
2022/11/23 04:41:21;;;;;;;291.97;274.13;;;2.50;29.50;;;;;;5072527;28;20538;-71
2022/11/23 04:43:48;;;;;;;204.95;190.07;;;2.50;29.10;;;;;;5072985;28;20175;-70
2022/11/23 04:46:13;;;;;;;389.23;364.15;;;2.50;29.30;;;;;;5072795;28;20294;-71
2022/11/23 04:48:39;;;;;;;137.80;126.30;;;2.50;29.20;;;;;;5072945;28;20258;-71
2022/11/23 04:51:05;;;;;;;321.47;301.40;;;2.50;29.80;;;;;;5072763;28;20178;-71
2022/11/23 04:53:30;;;;;;;413.80;387.83;;;2.60;29.20;;;;;;5072405;28;20223;-72
2022/11/23 04:55:56;;;;;;;220.97;204.67;;;2.60;29.00;;;;;;5071730;28;20210;-72
2022/11/23 04:58:21;;;;;;;223.53;208.10;;;2.60;29.10;;;;;;5073034;28;20292;-72
2022/11/23 05:00:47;;;;;;;329.27;307.63;;;2.70;28.90;;;;;;5072656;28;20188;-72
2022/11/23 05:03:12;;;;;;;139.77;127.93;;;2.70;28.40;;;;;;5069288;28;20209;-72
2022/11/23 05:05:39;;;;;;;165.47;152.57;;;2.70;28.40;;;;;;5055000;28;20214;-72
2022/11/23 05:08:06;;;;;;;511.27;484.83;;;2.70;28.40;;;;;;5051195;28;20258;-72
2022/11/23 05:10:31;;;;;;;181.23;168.00;;;2.70;28.30;;;;;;5052546;28;20262;-72
2022/11/23 05:12:57;;;;;;;308.73;289.33;;;2.70;28.60;;;;;;5052254;28;20210;-71
2022/11/23 05:15:22;;;;;;;290.53;272.17;;;2.70;28.40;;;;;;5052249;28;20173;-71
2022/11/23 05:17:48;;;;;;;157.37;145.50;;;2.60;28.50;;;;;;5050944;28;20196;-72
2022/11/23 05:20:14;;;;;;;254.10;237.07;;;2.70;29.20;;;;;;5052228;28;20187;-72
2022/11/23 05:22:39;;;;;;;227.57;212.32;;;2.60;28.30;;;;;;5052277;28;20179;-72
2022/11/23 05:25:06;;;;;;;327.97;305.70;;;2.60;28.40;;;;;;5052250;28;20228;-72
2022/11/23 05:27:32;;;;;;;265.70;248.75;;;2.60;28.30;;;;;;5050745;28;20264;-72
2022/11/23 05:29:57;;;;;;;282.33;264.85;;;2.60;28.30;;;;;;5052122;28;20177;-72
2022/11/23 05:32:23;;;;;;;211.80;197.23;;;2.60;28.20;;;;;;5051792;28;20655;-72
2022/11/23 05:34:48;;;;;;;341.03;317.83;;;2.50;28.60;;;;;;5050684;28;20183;-71
2022/11/23 05:37:14;;;;;;;295.83;276.70;;;2.50;28.70;;;;;;5051969;28;20210;-71
2022/11/23 05:39:40;;;;;;;674.27;632.13;;;2.50;28.60;;;;;;5050793;28;20184;-71
2022/11/23 05:42:06;;;;;;;297.03;278.97;;;2.50;28.80;;;;;;5051857;28;20177;-71
2022/11/23 05:44:32;;;;;;;223.07;207.00;;;2.60;28.80;;;;;;5050753;28;20180;-71
2022/11/23 05:46:57;;;;;;;416.60;394.87;;;2.60;28.90;;;;;;5051581;28;20565;-71
2022/11/23 05:49:23;;;;;;;270.73;253.80;;;2.60;28.40;;;;;;5050526;28;20814;-72
2022/11/23 05:51:48;;;;;;;369.70;348.53;;;2.50;28.80;;;;;;5051440;28;20171;-71
2022/11/23 05:54:14;;;;;;;424.30;401.27;;;2.60;28.70;;;;;;5051695;28;20210;-71
2022/11/23 05:56:39;;;;;;;239.17;224.03;;;2.60;28.60;;;;;;5051499;28;20242;-72
2022/11/23 05:59:05;;;;;;;131.43;119.80;;;2.50;29.10;;;;;;5051598;28;20220;-72
2022/11/23 06:01:32;;;;;;;171.70;159.37;;;2.40;29.30;;;;;;5051381;28;20175;-71
2022/11/23 06:03:57;;;;;;;243.45;227.15;;;2.40;29.30;;;;;;5051528;28;20174;-72
2022/11/23 06:06:23;;;;;;;317.70;296.73;;;2.40;29.40;;;;;;5051023;28;20674;-73
2022/11/23 06:08:48;;;;;;;213.60;199.33;;;2.40;29.40;;;;;;5051540;28;20632;-73
2022/11/23 06:11:14;;;;;;;363.23;342.30;;;2.30;29.80;;;;;;5051416;28;20267;-73
2022/11/23 06:13:40;;;;;;;276.43;259.00;;;2.40;29.50;;;;;;5051561;28;20171;-73
2022/11/23 06:16:05;;;;;;;249.57;233.03;;;2.40;29.40;;;;;;5051412;28;20190;-73
2022/11/23 06:18:31;;;;;;;250.97;234.83;;;2.30;29.40;;;;;;5051825;28;20217;-73
2022/11/23 06:21:00;;;;;;;147.77;135.83;;;2.30;29.80;;;;;;5051368;28;20904;-73
2022/11/23 06:23:26;;;;;;;377.27;357.45;;;2.30;29.70;;;;;;5049839;28;20190;-73
2022/11/23 06:25:51;;;;;;;323.23;305.45;;;2.30;29.30;;;;;;5051318;28;20183;-73
2022/11/23 06:28:17;;;;;;;353.57;333.13;;;2.30;29.60;;;;;;5051340;28;20222;-73
2022/11/23 06:30:43;;;;;;;392.00;371.10;;;2.20;29.80;;;;;;5051519;28;20175;-74
2022/11/23 06:33:09;;;;;;;314.43;294.80;;;2.10;29.70;;;;;;5051049;28;20174;-72
2022/11/23 06:35:34;;;;;;;163.10;149.77;;;2.00;30.30;;;;;;5050031;28;20251;-72
2022/11/23 06:38:00;;;;;;;230.43;215.43;;;2.10;30.60;;;;;;5051301;28;20417;-72
2022/11/23 06:40:26;;;;;;;185.57;171.93;;;2.10;30.60;;;;;;5051280;28;20182;-72
2022/11/23 06:42:57;;;;;;;267.45;251.65;;;2.20;30.60;;;;;;5051282;28;20277;-72
2022/11/23 06:45:22;;;;;;;325.55;306.13;;;2.20;31.10;;;;;;5050074;28;20561;-72
2022/11/23 06:47:48;;;;;;;206.97;192.90;;;2.20;31.00;;;;;;5051126;28;20210;-72
2022/11/23 06:50:14;;;;;;;203.00;189.03;;;2.30;31.00;;;;;;5050974;28;20171;-73
2022/11/23 06:52:39;;;;;;;150.03;138.13;;;2.30;30.70;;;;;;5050729;28;20171;-72
2022/11/23 06:55:05;;;;;;;142.23;129.90;;;2.40;30.80;;;;;;5050998;28;20488;-72
2022/11/23 06:57:31;;;;;;;203.57;189.23;;;2.40;30.40;;;;;;5050968;28;20708;-73
2022/11/23 06:59:56;;;;;;;334.67;315.47;;;2.40;30.70;;;;;;5051176;28;20671;-73
2022/11/23 07:02:22;;;;;;;239.17;222.63;;;2.40;30.00;;;;;;5050821;28;20185;-73
2022/11/23 07:04:49;;;;;;;353.10;333.13;;;2.40;30.00;;;;;;5050888;28;20183;-73
2022/11/23 07:07:14;;;;;;;282.80;265.02;;;2.40;30.00;;;;;;5050934;28;20274;-73
2022/11/23 07:09:40;;;;;;;406.37;384.27;;;2.40;30.20;;;;;;5051143;28;20642;-73
2022/11/23 07:12:06;;;;;;;395.77;374.70;;;2.30;29.80;;;;;;5050729;28;20257;-72
2022/11/23 07:14:31;;;;;;;190.77;176.57;;;2.30;29.80;;;;;;5051098;28;20186;-72
2022/11/23 07:16:57;;;;;;;282.33;264.23;;;2.30;30.00;;;;;;5050998;28;20532;-72
2022/11/23 07:19:22;;;;;;;196.87;182.83;;;2.30;29.70;;;;;;5052903;28;20220;-72
2022/11/23 07:21:48;;;;;;;143.63;131.07;;;2.30;30.00;;;;;;5054427;28;20182;-73
2022/11/23 07:24:13;;;;;;;249.03;233.07;;;2.30;30.30;;;;;;5054772;28;20190;-73
2022/11/23 07:26:39;;;;;;;216.23;200.03;;;2.30;29.90;;;;;;5054549;28;20550;-73
2022/11/23 07:29:04;;;;;;;183.17;170.07;;;2.20;29.70;;;;;;5054906;28;20564;-73
2022/11/23 07:31:30;;;;;;;210.93;196.23;;;2.20;30.00;;;;;;5054630;28;20179;-72
2022/11/23 07:33:56;;;;;;;172.30;159.17;;;2.20;30.00;;;;;;5054807;28;20172;-73
2022/11/23 07:36:21;;;;;;;258.73;240.70;;;2.20;30.10;;;;;;5053302;28;20605;-73
2022/11/23 07:38:47;;;;;;;305.43;285.67;;;2.20;29.90;;;;;;5053539;28;20185;-72
2022/11/23 07:41:12;;;;;;;165.47;152.33;;;2.30;29.90;;;;;;5054387;28;20182;-70
2022/11/23 07:43:38;;;;;;;159.67;147.03;;;2.30;30.00;;;;;;5054028;28;20183;-70
2022/11/23 07:46:03;;;;;;;363.10;342.40;;;2.30;29.90;;;;;;5056031;28;20222;-70
2022/11/23 07:48:29;;;;;;;117.60;105.10;;;2.40;29.40;;;;;;5054349;28;20211;-70
2022/11/23 07:50:54;;;;;;;210.10;194.90;;;2.50;29.80;;;;;;5054062;28;20184;-70
2022/11/23 07:53:20;;;;;;;123.40;108.67;;;2.60;29.70;;;;;;5054286;28;20172;-70
2022/11/23 07:55:48;;;;;;;193.63;178.27;;;2.60;29.30;;;;;;5054508;28;20185;-67
2022/11/23 07:58:14;;;;;;;162.50;148.57;;;2.80;28.60;;;;;;5052347;28;20172;-68
2022/11/23 08:00:39;;;;;;;335.07;313.70;;;2.80;28.40;;;;;;5053766;28;20259;-68
2022/11/23 08:03:05;;;;;;;152.23;136.83;;;2.90;28.10;;;;;;5053267;28;20481;-69
2022/11/23 08:05:32;;;;;;;359.67;335.27;;;2.90;28.00;;;;;;5053650;28;20208;-68
2022/11/23 08:07:59;;;;;;;149.27;135.35;;;3.00;27.20;;;;;;5057523;28;20208;-68
2022/11/23 08:10:29;;;;;;;312.02;291.40;;;3.10;27.20;;;;;;5073616;28;20245;-68
2022/11/23 08:13:02;;;;;;;204.75;187.23;;;3.20;27.20;;;;;;5073318;28;20183;-68
2022/11/23 08:15:28;;;;;;;266.63;246.02;;;3.30;26.70;;;;;;5073534;28;20297;-69
2022/11/23 08:17:59;;;;;;;370.45;346.58;;;3.40;26.70;;;;;;5073597;28;20750;-68
2022/11/23 08:20:25;;;;;;;271.75;249.48;;;3.40;26.50;;;;;;5072169;28;20699;-69
2022/11/23 08:22:51;;;;;;;271.77;252.27;;;3.50;26.30;;;;;;5072946;28;20596;-69
2022/11/23 08:25:17;;;;;;;485.13;457.63;;;3.60;25.70;;;;;;5073595;28;20185;-69
2022/11/23 08:27:42;;;;;;;435.33;408.43;;;3.70;25.60;;;;;;5073106;28;20212;-69
2022/11/23 08:30:09;;;;;;;414.30;389.43;;;3.80;25.20;;;;;;5072875;28;20202;-69
2022/11/23 08:32:34;;;;;;;259.50;239.20;;;3.90;24.70;;;;;;5072812;28;20253;-71
2022/11/23 08:35:00;;;;;;;305.90;286.37;;;3.90;23.60;;;;;;5073494;28;20318;-70
2022/11/23 08:37:25;;;;;;;188.33;173.87;;;4.00;23.90;;;;;;5073647;28;20683;-68
2022/11/23 08:39:51;;;;;;;341.50;321.43;;;4.10;23.70;;;;;;5073176;28;20180;-69
2022/11/23 08:42:16;;;;;;;283.30;264.30;;;4.00;23.60;;;;;;5072638;28;20255;-69
2022/11/23 08:44:42;;;;;;;364.03;340.50;;;4.20;23.80;;;;;;5072931;28;20175;-69
2022/11/23 08:47:07;;;;;;;475.97;447.67;;;4.20;23.50;;;;;;5072623;28;20296;-69
2022/11/23 08:49:33;;;;;;;322.00;300.47;;;4.30;23.90;;;;;;5072775;28;20528;-70
2022/11/23 08:51:59;;;;;;;314.93;293.13;;;4.40;23.50;;;;;;5072513;28;20664;-69
2022/11/23 08:54:24;;;;;;;291.87;271.00;;;4.50;22.90;;;;;;5072782;28;20176;-69
2022/11/23 08:56:51;;;;;;;135.73;123.17;;;4.50;22.60;;;;;;5072795;28;20220;-69
2022/11/23 08:59:17;;;;;;;319.43;296.83;;;4.60;21.80;;;;;;5072462;28;20177;-69
2022/11/23 09:01:43;;;;;;;239.77;222.70;;;4.60;21.80;;;;;;5072220;28;20430;-69
2022/11/23 09:04:09;;;;;;;378.77;355.33;;;4.60;21.50;;;;;;5072385;28;20497;-69
2022/11/23 09:06:35;;;;;;;188.33;173.57;;;4.70;21.00;;;;;;5072334;28;20212;-69
2022/11/23 09:09:00;;;;;;;241.13;222.93;;;4.80;20.80;;;;;;5072531;28;20423;-69
2022/11/23 09:11:26;;;;;;;241.20;223.57;;;4.90;20.70;;;;;;5072225;28;20234;-70
2022/11/23 09:13:53;;;;;;;112.87;101.43;;;5.00;20.10;;;;;;5070602;28;20710;-69
2022/11/23 09:16:19;;;;;;;252.30;234.17;;;5.00;19.20;;;;;;5072586;28;20250;-69
2022/11/23 09:18:45;;;;;;;246.70;229.90;;;5.10;19.00;;;;;;5072265;28;20431;-69
2022/11/23 09:21:11;;;;;;;214.67;199.17;;;5.20;18.20;;;;;;5072260;28;20784;-70
2022/11/23 09:23:37;;;;;;;281.30;261.50;;;5.30;17.00;;;;;;5071579;28;20489;-70
2022/11/23 09:26:03;;;;;;;304.43;284.63;;;5.40;17.00;;;;;;5071794;28;20217;-70
2022/11/23 09:28:30;;;;;;;355.90;335.43;;;5.40;16.80;;;;;;5071930;28;20173;-69
2022/11/23 09:30:56;;;;;;;281.47;262.53;;;5.50;17.00;;;;;;5072054;28;20444;-70
2022/11/23 09:33:23;;;;;;;149.03;137.00;;;5.60;17.30;;;;;;5071733;28;20441;-69
2022/11/23 09:36:00;;;;;;;213.33;197.60;;;5.70;16.30;;;;;;5072138;28;20468;-69
2022/11/23 09:38:26;;;;;;;314.60;293.73;;;5.80;16.60;;;;;;5072133;28;20922;-69
2022/11/23 09:41:08;;;;;;;278.37;259.60;;;5.80;16.40;;;;;;5071385;28;20431;-69
2022/11/23 09:43:58;;;;;;;354.53;329.73;;;5.90;17.00;;;;;;5070400;28;20419;-69
2022/11/23 09:46:44;;;;;;;223.83;208.13;;;5.90;16.20;;;;;;5071690;28;20505;-69
2022/11/23 09:49:14;;;;;;;230.40;213.43;;;5.90;16.50;;;;;;5071933;28;20803;-69
2022/11/23 09:51:41;;;;;;;305.37;286.27;;;6.00;16.00;;;;;;5071910;28;20521;-70
2022/11/23 09:54:23;;;;;;;208.67;193.30;;;6.10;15.80;;;;;;5071764;28;20503;-70
2022/11/23 09:56:52;;;;;;;162.80;150.27;;;6.10;15.90;;;;;;5070410;28;20455;-70
2022/11/23 09:59:46;;;;;;;157.30;144.47;;;6.20;15.20;;;;;;5071875;28;20793;-71
2022/11/23 10:02:23;;;;;;;380.60;356.67;;;6.20;15.40;;;;;;5071649;28;20750;-73
2022/11/23 10:04:52;;;;;;;218.00;202.50;;;6.20;15.00;;;;;;5071741;28;20519;-69
2022/11/23 10:07:21;;;;;;;176.60;162.80;;;6.20;15.10;;;;;;5071816;28;20825;-69
2022/11/23 10:10:03;;;;;;;334.60;313.70;;;6.30;15.20;;;;;;5071690;28;20419;-69
2022/11/23 10:12:53;;;;;;;499.27;463.43;;;6.30;15.00;;;;;;5071392;28;20892;-71
2022/11/23 10:15:30;;;;;;;239.90;223.27;;;6.30;14.90;;;;;;5071584;28;20503;-71
2022/11/23 10:17:58;;;;;;;285.47;265.43;;;6.30;15.10;;;;;;5071589;28;20439;-71
2022/11/23 10:20:39;;;;;;;185.70;171.30;;;6.30;15.40;;;;;;5071567;28;20412;-69
2022/11/23 10:23:42;;;;;;;286.80;267.70;;;6.30;15.60;;;;;;5071373;28;20546;-69
2022/11/23 10:26:17;;;;;;;170.30;156.93;;;6.30;16.70;;;;;;5070045;28;20501;-70
2022/11/23 10:28:45;;;;;;;118.17;107.30;;;6.40;16.80;;;;;;5071531;28;20474;-71
2022/11/23 10:31:19;;;;;;;173.40;159.70;;;6.50;16.80;;;;;;5071722;28;20409;-71
2022/11/23 10:33:51;;;;;;;253.03;235.70;;;6.50;16.80;;;;;;5071102;28;20446;-71
2022/11/23 10:36:17;;;;;;;353.37;329.17;;;6.50;16.80;;;;;;5071364;28;20436;-71
2022/11/23 10:38:44;;;;;;;104.27;94.10;;;6.50;16.80;;;;;;5071444;28;20841;-71
2022/11/23 10:41:14;;;;;;;304.37;284.73;;;6.60;16.70;;;;;;5071380;28;20254;-71
2022/11/23 10:43:59;;;;;;;394.67;369.00;;;6.70;16.90;;;;;;5071092;28;20424;-71
2022/11/23 10:46:30;;;;;;;245.07;227.53;;;6.60;16.50;;;;;;5071255;28;20461;-71
2022/11/23 10:49:14;;;;;;;437.00;410.20;;;6.70;17.00;;;;;;5071373;28;20470;-71
2022/11/23 10:51:47;;;;;;;165.47;152.13;;;6.80;16.80;;;;;;5071009;28;20771;-71
2022/11/23 10:54:44;;;;;;;298.07;278.90;;;6.80;16.30;;;;;;5073493;28;20451;-71
2022/11/23 10:57:28;;;;;;;156.60;144.00;;;6.90;16.20;;;;;;5070200;28;20472;-71
2022/11/23 11:00:16;;;;;;;256.53;237.63;;;6.90;16.00;;;;;;5074979;28;20487;-71
2022/11/23 11:02:45;;;;;;;287.57;269.50;;;6.90;16.20;;;;;;5073462;28;20422;-71
2022/11/23 11:05:28;;;;;;;380.63;357.50;;;7.00;16.30;;;;;;5075082;28;20807;-71
2022/11/23 11:07:57;;;;;;;271.17;252.27;;;7.10;16.10;;;;;;5074620;28;20461;-72
2022/11/23 11:10:41;;;;;;;229.23;213.73;;;7.20;15.80;;;;;;5074908;28;20841;-71
2022/11/23 11:13:28;;;;;;;231.33;215.50;;;7.20;15.50;;;;;;5074658;28;20428;-71
2022/11/23 11:16:04;;;;;;;264.30;247.30;;;7.30;14.50;;;;;;5075634;28;20429;-71
2022/11/23 11:18:32;;;;;;;211.17;195.90;;;7.30;15.10;;;;;;5074773;28;20808;-71
2022/11/23 11:21:00;;;;;;;159.23;146.47;;;7.40;15.50;;;;;;5075192;28;20492;-71
2022/11/23 11:23:28;;;;;;;239.33;222.47;;;7.40;16.20;;;;;;5074912;28;20976;-71
2022/11/23 11:26:24;;;;;;;309.97;291.07;;;7.50;15.90;;;;;;5074382;28;20429;-71
2022/11/23 11:28:56;;;;;;;213.93;199.43;;;7.50;15.30;;;;;;5074538;28;20423;-71
2022/11/23 11:31:32;;;;;;;259.63;241.77;;;7.60;15.50;;;;;;5074459;28;20409;-73
2022/11/23 11:34:22;;;;;;;297.67;280.67;;;7.60;15.40;;;;;;5073391;28;21002;-74
2022/11/23 11:37:26;;;;;;;377.13;352.57;;;7.70;15.20;;;;;;5074147;28;20462;-72
2022/11/23 11:39:56;;;;;;;565.93;529.13;;;7.80;15.20;;;;;;5055826;28;20463;-69
2022/11/23 11:42:35;;;;;;;340.27;317.93;;;7.80;15.10;;;;;;5074135;28;20914;-71
2022/11/23 11:45:05;;;;;;;325.00;302.70;;;7.90;14.40;;;;;;5074197;28;20398;-72
2022/11/23 11:47:38;;;;;;;502.03;471.40;;;8.00;14.50;;;;;;5074048;28;20463;-72
2022/11/23 11:50:28;;;;;;;175.37;162.07;;;8.00;14.10;;;;;;5074166;28;20407;-72
2022/11/23 11:53:01;;;;;;;325.20;304.33;;;8.10;14.40;;;;;;5073847;28;20406;-72
2022/11/23 11:55:35;;;;;;;255.97;237.07;;;8.10;13.80;;;;;;5074024;28;20955;-72
2022/11/23 11:58:21;;;;;;;328.13;306.97;;;8.10;13.80;;;;;;5073984;28;20816;-72
2022/11/23 12:00:47;;;;;;;333.47;312.33;;;8.20;13.60;;;;;;5073892;28;20408;-72
2022/11/23 12:03:25;;;;;;;214.47;199.07;;;8.30;13.70;;;;;;5073712;28;20494;-73
2022/11/23 12:05:53;;;;;;;403.20;378.00;;;8.30;13.50;;;;;;5073398;28;20406;-73
2022/11/23 12:08:39;;;;;;;308.43;288.90;;;8.40;13.60;;;;;;5073786;28;20415;-73
2022/11/23 12:11:06;;;;;;;411.03;384.50;;;8.40;13.60;;;;;;5074104;28;20415;-73
2022/11/23 12:13:37;;;;;;;268.33;249.83;;;8.50;13.10;;;;;;5073401;28;20923;-73
2022/11/23 12:16:27;;;;;;;226.23;210.77;;;8.50;13.60;;;;;;5073217;28;20473;-73
2022/11/23 12:19:14;;;;;;;284.97;266.03;;;8.50;13.80;;;;;;5073514;28;20959;-73
2022/11/23 12:21:42;;;;;;;223.50;207.43;;;8.60;13.90;;;;;;5071732;28;20506;-73
2022/11/23 12:24:40;;;;;;;212.50;196.83;;;8.70;13.70;;;;;;5072031;28;20430;-73
2022/11/23 12:27:32;;;;;;;213.23;198.03;;;8.70;13.00;;;;;;5072390;28;20474;-73